Time;durP1;ratioP1;P1;durP2;ratioP2;P2;SDS_P1;SDS_P2;PMS_P1;PMS_P2;Temp;Humidity;BMP_temperature;BMP_pressure;BME280_temperature;BME280_humidity;BME280_pressure;Samples;Min_cycle;Max_cycle;Signal;HPM_P1;HPM_P2
2022/09/29 00:00:27;;;;;;;;;;;;;;;15.14;100.00;98345.66;4418631;32;34978;-74
2022/09/29 00:03:13;;;;;;;;;;;;;;;15.07;100.00;98343.56;4449306;32;35279;-74
2022/09/29 00:05:59;;;;;;;;;;;;;;;15.27;100.00;98348.97;4437850;32;34899;-75
2022/09/29 00:08:46;;;;;;;;;;;;;;;15.18;100.00;98340.97;4446258;32;34210;-75
2022/09/29 00:11:32;;;;;;;;;;;;;;;15.37;100.00;98342.00;4438986;32;34459;-74
2022/09/29 00:14:17;;;;;;;;;;;;;;;15.46;100.00;98334.25;4449308;32;35232;-74
2022/09/29 00:17:03;;;;;;;;;;;;;;;15.32;100.00;98334.06;4432585;32;34905;-74
2022/09/29 00:19:49;;;;;;;;;;;;;;;15.56;100.00;98347.37;4449877;32;34140;-74
2022/09/29 00:22:35;;;;;;;;;;;;;;;14.92;100.00;98343.75;4426589;32;34609;-74
2022/09/29 00:25:21;;;;;;;;;;;;;;;15.27;100.00;98344.25;4425073;32;35268;-75
2022/09/29 00:28:07;;;;;;;;;;;;;;;15.59;100.00;98338.34;4435789;32;33608;-74
2022/09/29 00:30:53;;;;;;;;;;;;;;;15.51;100.00;98333.91;4438081;32;34111;-74
2022/09/29 00:33:39;;;;;;;;;;;;;;;15.57;100.00;98334.34;4428198;32;34874;-74
2022/09/29 00:36:28;;;;;;;;;;;;;;;15.58;100.00;98331.22;4442798;32;35307;-74
2022/09/29 00:39:13;;;;;;;;;;;;;;;15.27;100.00;98337.94;4428491;32;35764;-74
2022/09/29 00:42:00;;;;;;;;;;;;;;;15.37;100.00;98328.19;4428992;32;32116;-74
2022/09/29 00:45:04;;;;;;;;;;;;;;;15.51;100.00;98336.66;4423195;32;35822;-74
2022/09/29 00:47:52;;;;;;;;;;;;;;;15.48;100.00;98321.66;4437254;32;35284;-74
2022/09/29 00:50:40;;;;;;;;;;;;;;;15.39;100.00;98314.81;4435504;32;35107;-74
2022/09/29 00:53:26;;;;;;;;;;;;;;;15.14;100.00;98328.28;4422824;32;35174;-74
2022/09/29 00:56:13;;;;;;;;;;;;;;;13.61;100.00;98335.56;4447099;32;34460;-74
2022/09/29 00:59:00;;;;;;;;;;;;;;;13.89;100.00;98344.34;4437932;32;35274;-74
2022/09/29 01:01:46;;;;;;;;;;;;;;;13.68;100.00;98341.19;4437162;32;34956;-74
2022/09/29 01:04:33;;;;;;;;;;;;;;;14.48;100.00;98335.94;4448498;32;34870;-74
2022/09/29 01:07:21;;;;;;;;;;;;;;;14.79;100.00;98318.34;4437148;32;35876;-74
2022/09/29 01:10:07;;;;;;;;;;;;;;;14.80;100.00;98317.19;4432942;32;34752;-74
2022/09/29 01:12:53;;;;;;;;;;;;;;;15.33;100.00;98314.34;4436404;32;35029;-74
2022/09/29 01:15:39;;;;;;;;;;;;;;;15.04;100.00;98316.75;4437129;32;34080;-74
2022/09/29 01:18:25;;;;;;;;;;;;;;;14.81;100.00;98316.00;4448221;32;34908;-74
2022/09/29 01:21:30;;;;;;;;;;;;;;;14.53;100.00;98317.16;4449975;32;35730;-74
2022/09/29 01:24:38;;;;;;;;;;;;;;;14.67;100.00;98313.84;4447475;32;34886;-74
2022/09/29 01:27:44;;;;;;;;;;;;;;;14.65;100.00;98318.91;4426775;32;34665;-74
2022/09/29 01:30:48;;;;;;;;;;;;;;;15.37;100.00;98317.97;4447263;32;35541;-74
2022/09/29 01:33:40;;;;;;;;;;;;;;;15.18;100.00;98313.38;4437272;32;36000;-74
2022/09/29 01:36:26;;;;;;;;;;;;;;;14.90;100.00;98310.22;4426676;32;34887;-74
2022/09/29 01:39:12;;;;;;;;;;;;;;;15.14;100.00;98311.72;4449028;32;33521;-74
2022/09/29 01:42:02;;;;;;;;;;;;;;;15.19;100.00;98303.13;4437024;32;34968;-74
2022/09/29 01:44:56;;;;;;;;;;;;;;;14.85;100.00;98301.09;4435698;32;35187;-75
2022/09/29 01:47:44;;;;;;;;;;;;;;;14.79;100.00;98294.31;4437703;32;34700;-74
2022/09/29 01:50:34;;;;;;;;;;;;;;;15.09;100.00;98295.53;4424002;32;35147;-74
2022/09/29 01:53:44;;;;;;;;;;;;;;;15.12;100.00;98294.78;4435236;32;34942;-74
2022/09/29 01:56:43;;;;;;;;;;;;;;;15.30;100.00;98293.81;4449590;32;34072;-74
2022/09/29 01:59:41;;;;;;;;;;;;;;;15.33;100.00;98285.97;4436165;32;35764;-74
2022/09/29 02:02:33;;;;;;;;;;;;;;;15.31;100.00;98283.56;4436885;32;34123;-75
2022/09/29 02:05:21;;;;;;;;;;;;;;;15.27;100.00;98291.81;4436931;32;34949;-74
2022/09/29 02:08:26;;;;;;;;;;;;;;;15.41;100.00;98287.66;4437034;32;36087;-75
2022/09/29 02:11:13;;;;;;;;;;;;;;;15.50;100.00;98288.16;4449636;32;36058;-74
2022/09/29 02:14:00;;;;;;;;;;;;;;;15.25;100.00;98290.59;4426328;32;34110;-74
2022/09/29 02:16:47;;;;;;;;;;;;;;;15.06;100.00;98286.03;4425752;32;34412;-74
2022/09/29 02:19:33;;;;;;;;;;;;;;;15.37;100.00;98297.84;4437305;32;36083;-74
2022/09/29 02:22:19;;;;;;;;;;;;;;;15.32;100.00;98285.19;4437605;32;34835;-74
2022/09/29 02:25:06;;;;;;;;;;;;;;;14.79;100.00;98288.81;4437127;32;33711;-75
2022/09/29 02:27:52;;;;;;;;;;;;;;;15.18;100.00;98285.78;4437390;32;35753;-74
2022/09/29 02:30:38;;;;;;;;;;;;;;;15.25;100.00;98294.19;4437309;32;34934;-74
2022/09/29 02:33:25;;;;;;;;;;;;;;;15.26;100.00;98300.50;4446905;32;35343;-75
2022/09/29 02:36:30;;;;;;;;;;;;;;;15.39;100.00;98299.06;4437333;32;34131;-74
2022/09/29 02:39:34;;;;;;;;;;;;;;;15.33;100.00;98308.06;4447982;32;34615;-75
2022/09/29 02:42:26;;;;;;;;;;;;;;;15.02;100.00;98321.03;4448607;32;34956;-74
2022/09/29 02:45:21;;;;;;;;;;;;;;;14.96;100.00;98319.78;4448893;32;35168;-75
2022/09/29 02:48:07;;;;;;;;;;;;;;;14.69;100.00;98319.00;4437206;32;33776;-74
2022/09/29 02:51:06;;;;;;;;;;;;;;;14.92;100.00;98327.22;4437020;32;35830;-74
2022/09/29 02:54:07;;;;;;;;;;;;;;;14.93;100.00;98337.84;4449116;32;36907;-73
2022/09/29 02:57:10;;;;;;;;;;;;;;;14.68;100.00;98318.16;4448585;32;35732;-74
2022/09/29 02:59:59;;;;;;;;;;;;;;;13.99;100.00;98320.94;4435346;32;34138;-75
2022/09/29 03:02:45;;;;;;;;;;;;;;;14.07;100.00;98321.84;4435917;32;34510;-75
2022/09/29 03:05:31;;;;;;;;;;;;;;;14.17;100.00;98329.50;4435184;32;35021;-75
2022/09/29 03:08:17;;;;;;;;;;;;;;;14.18;100.00;98323.63;4448341;32;35370;-76
2022/09/29 03:11:03;;;;;;;;;;;;;;;13.78;100.00;98337.84;4448550;32;35030;-75
2022/09/29 03:13:49;;;;;;;;;;;;;;;13.00;100.00;98326.75;4428930;32;35855;-76
2022/09/29 03:16:35;;;;;;;;;;;;;;;12.64;100.00;98322.41;4447760;32;34892;-76
2022/09/29 03:19:21;;;;;;;;;;;;;;;12.69;100.00;98322.13;4449963;32;35335;-76
2022/09/29 03:22:07;;;;;;;;;;;;;;;12.80;100.00;98320.41;4448576;32;34128;-77
2022/09/29 03:24:53;;;;;;;;;;;;;;;13.66;100.00;98321.47;4437664;32;35034;-77
2022/09/29 03:27:39;;;;;;;;;;;;;;;13.47;100.00;98323.09;4450763;32;35191;-77
2022/09/29 03:30:25;;;;;;;;;;;;;;;13.10;100.00;98313.62;4436527;32;34938;-78
2022/09/29 03:33:11;;;;;;;;;;;;;;;13.35;100.00;98317.72;4437908;32;33674;-78
2022/09/29 03:35:57;;;;;;;;;;;;;;;13.77;100.00;98325.22;4437967;32;34405;-78
2022/09/29 03:38:45;;;;;;;;;;;;;;;13.86;100.00;98300.22;4438572;32;34711;-78
2022/09/29 03:41:32;;;;;;;;;;;;;;;13.45;100.00;98292.38;4437061;32;34707;-78
2022/09/29 03:44:17;;;;;;;;;;;;;;;13.42;100.00;98290.34;4449908;32;34335;-78
2022/09/29 03:47:03;;;;;;;;;;;;;;;14.35;100.00;98294.78;4448618;32;35875;-78
2022/09/29 03:49:49;;;;;;;;;;;;;;;14.76;100.00;98286.00;4438444;32;35150;-78
2022/09/29 03:52:36;;;;;;;;;;;;;;;14.79;100.00;98286.03;4427646;32;34933;-77
2022/09/29 03:55:22;;;;;;;;;;;;;;;14.48;100.00;98267.03;4437087;32;33769;-77
2022/09/29 03:58:09;;;;;;;;;;;;;;;14.85;100.00;98270.75;4425193;32;34906;-78
2022/09/29 04:00:55;;;;;;;;;;;;;;;15.03;100.00;98273.78;4437430;32;34871;-78
2022/09/29 04:03:42;;;;;;;;;;;;;;;15.30;100.00;98284.75;4437205;32;35301;-77
2022/09/29 04:06:28;;;;;;;;;;;;;;;15.15;100.00;98278.28;4429678;32;33846;-77
2022/09/29 04:09:14;;;;;;;;;;;;;;;14.82;100.00;98274.25;4450037;32;34993;-77
2022/09/29 04:12:00;;;;;;;;;;;;;;;14.93;100.00;98273.63;4427086;32;36215;-77
2022/09/29 04:14:46;;;;;;;;;;;;;;;15.09;100.00;98274.25;4449997;32;34703;-77
2022/09/29 04:17:32;;;;;;;;;;;;;;;15.34;100.00;98271.00;4448649;32;34501;-78
2022/09/29 04:20:17;;;;;;;;;;;;;;;15.49;100.00;98272.78;4449457;32;35332;-77
2022/09/29 04:23:03;;;;;;;;;;;;;;;15.49;100.00;98278.28;4449723;32;36241;-78
2022/09/29 04:25:50;;;;;;;;;;;;;;;15.05;100.00;98270.63;4418943;32;35003;-77
2022/09/29 04:28:36;;;;;;;;;;;;;;;15.19;100.00;98268.06;4448479;32;35030;-77
2022/09/29 04:31:22;;;;;;;;;;;;;;;14.99;100.00;98272.13;4422989;32;33903;-77
2022/09/29 04:34:08;;;;;;;;;;;;;;;14.99;100.00;98277.66;4438120;32;36143;-77
2022/09/29 04:36:54;;;;;;;;;;;;;;;13.44;100.00;98268.78;4426028;32;35088;-77
2022/09/29 04:39:41;;;;;;;;;;;;;;;13.97;100.00;98273.66;4449417;32;34430;-76
2022/09/29 04:42:27;;;;;;;;;;;;;;;14.87;100.00;98275.91;4450002;32;34285;-77
2022/09/29 04:45:13;;;;;;;;;;;;;;;13.97;100.00;98278.37;4446571;32;35211;-78
2022/09/29 04:47:59;;;;;;;;;;;;;;;14.79;100.00;98279.72;4448744;32;35748;-77
2022/09/29 04:50:45;;;;;;;;;;;;;;;15.06;100.00;98280.53;4446953;32;95296;-77
2022/09/29 04:53:31;;;;;;;;;;;;;;;14.17;100.00;98279.91;4437741;32;35018;-77
2022/09/29 04:56:17;;;;;;;;;;;;;;;14.74;100.00;98278.13;4449709;32;34837;-77
2022/09/29 04:59:03;;;;;;;;;;;;;;;13.84;100.00;98281.31;4435497;32;34958;-77
2022/09/29 05:01:49;;;;;;;;;;;;;;;14.80;100.00;98287.66;4448489;32;34197;-78
2022/09/29 05:04:36;;;;;;;;;;;;;;;14.79;100.00;98291.56;4449886;32;35864;-78
2022/09/29 05:07:22;;;;;;;;;;;;;;;12.88;100.00;98290.34;4437510;32;34741;-78
2022/09/29 05:10:08;;;;;;;;;;;;;;;13.62;100.00;98285.63;4448510;32;34710;-78
2022/09/29 05:12:54;;;;;;;;;;;;;;;14.59;100.00;98292.84;4443288;32;34134;-78
2022/09/29 05:15:40;;;;;;;;;;;;;;;14.17;100.00;98302.78;4448572;32;35134;-77
2022/09/29 05:18:26;;;;;;;;;;;;;;;12.60;100.00;98291.28;4449190;32;36202;-78
2022/09/29 05:21:12;;;;;;;;;;;;;;;12.48;100.00;98288.66;4437908;32;35344;-78
2022/09/29 05:24:13;;;;;;;;;;;;;;;13.97;100.00;98295.69;4438467;32;34898;-79
2022/09/29 05:26:59;;;;;;;;;;;;;;;14.57;100.00;98306.19;4437670;32;34988;-79
2022/09/29 05:29:45;;;;;;;;;;;;;;;13.12;100.00;98305.78;4435679;32;36117;-79
2022/09/29 05:32:32;;;;;;;;;;;;;;;12.57;100.00;98300.25;4449374;32;35491;-79
2022/09/29 05:35:17;;;;;;;;;;;;;;;13.78;100.00;98302.06;4449301;32;34834;-79
2022/09/29 05:38:04;;;;;;;;;;;;;;;14.43;100.00;98312.25;4449117;32;35758;-80
2022/09/29 05:40:51;;;;;;;;;;;;;;;14.80;100.00;98314.44;4448985;32;34745;-80
2022/09/29 05:43:37;;;;;;;;;;;;;;;14.65;100.00;98310.63;4437634;32;34410;-80
2022/09/29 05:46:23;;;;;;;;;;;;;;;14.85;100.00;98303.84;4447702;32;34081;-80
2022/09/29 05:49:10;;;;;;;;;;;;;;;14.47;100.00;98317.81;4448454;32;34959;-80
2022/09/29 05:51:55;;;;;;;;;;;;;;;13.23;100.00;98323.31;4424086;32;35129;-80
2022/09/29 05:54:41;;;;;;;;;;;;;;;13.41;100.00;98327.28;4437095;32;34495;-80
2022/09/29 05:57:27;;;;;;;;;;;;;;;13.04;100.00;98333.16;4437549;32;34493;-79
2022/09/29 06:00:13;;;;;;;;;;;;;;;12.86;100.00;98337.44;4447985;32;35867;-79
2022/09/29 06:03:00;;;;;;;;;;;;;;;13.87;100.00;98329.34;4436158;32;36290;-78
2022/09/29 06:05:46;;;;;;;;;;;;;;;12.69;100.00;98335.06;4430740;32;35709;-79
2022/09/29 06:08:32;;;;;;;;;;;;;;;12.85;100.00;98329.56;4425779;32;34056;-79
2022/09/29 06:11:20;;;;;;;;;;;;;;;12.23;100.00;98338.28;4437319;32;34951;-78
2022/09/29 06:14:06;;;;;;;;;;;;;;;12.61;100.00;98336.88;4437443;32;35176;-77
2022/09/29 06:16:52;;;;;;;;;;;;;;;11.98;100.00;98339.56;4426717;32;34454;-77
2022/09/29 06:19:38;;;;;;;;;;;;;;;11.73;100.00;98333.41;4447984;32;34140;-77
2022/09/29 06:22:29;;;;;;;;;;;;;;;11.80;100.00;98350.06;4443963;32;35862;-76
2022/09/29 06:25:16;;;;;;;;;;;;;;;11.84;100.00;98349.00;4435492;32;35233;-78
2022/09/29 06:28:02;;;;;;;;;;;;;;;11.25;100.00;98355.16;4448655;32;36031;-78
2022/09/29 06:30:48;;;;;;;;;;;;;;;11.83;100.00;98363.06;4435411;32;34364;-79
2022/09/29 06:33:35;;;;;;;;;;;;;;;11.33;100.00;98358.94;4435181;32;34926;-78
2022/09/29 06:39:27;;;;;;;;;;;;;;;10.90;100.00;98360.34;4425961;32;34356;-77
2022/09/29 06:42:15;;;;;;;;;;;;;;;10.91;100.00;98372.94;4424960;32;33285;-77
2022/09/29 06:45:01;;;;;;;;;;;;;;;10.98;100.00;98373.12;4435946;32;35031;-78
2022/09/29 06:47:47;;;;;;;;;;;;;;;10.90;100.00;98379.53;4430901;32;35562;-77
2022/09/29 06:50:33;;;;;;;;;;;;;;;10.89;100.00;98383.44;4424840;32;33514;-76
2022/09/29 06:53:19;;;;;;;;;;;;;;;10.72;100.00;98371.56;4413919;32;34118;-77
2022/09/29 06:56:18;;;;;;;;;;;;;;;10.97;100.00;98371.53;4424137;32;35417;-75
2022/09/29 06:59:04;;;;;;;;;;;;;;;11.38;100.00;98375.91;4422301;32;35066;-74
2022/09/29 07:01:50;;;;;;;;;;;;;;;11.52;100.00;98370.03;4432357;32;35600;-74
2022/09/29 07:04:37;;;;;;;;;;;;;;;11.01;100.00;98361.47;4432909;32;33069;-74
2022/09/29 07:07:22;;;;;;;;;;;;;;;10.87;100.00;98382.97;4431365;32;34928;-74
2022/09/29 07:10:09;;;;;;;;;;;;;;;10.89;100.00;98395.19;4423533;32;34507;-75
2022/09/29 07:12:54;;;;;;;;;;;;;;;11.44;100.00;98391.00;4423136;32;34244;-75
2022/09/29 07:15:41;;;;;;;;;;;;;;;11.26;100.00;98395.94;4431085;32;33311;-75
2022/09/29 07:18:27;;;;;;;;;;;;;;;11.07;100.00;98390.28;4430742;32;35237;-75
2022/09/29 07:21:17;;;;;;;;;;;;;;;11.12;100.00;98391.97;4423490;32;35182;-74
2022/09/29 07:24:03;;;;;;;;;;;;;;;11.21;100.00;98385.22;4407837;32;33296;-74
2022/09/29 07:26:49;;;;;;;;;;;;;;;10.94;100.00;98383.19;4430362;32;35341;-75
2022/09/29 07:29:35;;;;;;;;;;;;;;;11.56;100.00;98397.59;4430681;32;34261;-74
2022/09/29 07:32:21;;;;;;;;;;;;;;;11.43;100.00;98400.34;4431170;32;34751;-75
2022/09/29 07:35:13;;;;;;;;;;;;;;;11.81;100.00;98401.03;4422738;32;33415;-75
2022/09/29 07:37:59;;;;;;;;;;;;;;;11.79;100.00;98406.88;4431589;32;32339;-74
2022/09/29 07:40:45;;;;;;;;;;;;;;;12.71;100.00;98404.22;4429176;32;33322;-75
2022/09/29 07:43:31;;;;;;;;;;;;;;;13.00;100.00;98406.50;4430261;32;35726;-76
2022/09/29 07:46:17;;;;;;;;;;;;;;;12.20;100.00;98421.38;4431025;32;34257;-74
2022/09/29 07:49:03;;;;;;;;;;;;;;;12.64;100.00;98420.56;4421253;32;34425;-74
2022/09/29 07:51:49;;;;;;;;;;;;;;;12.42;100.00;98417.25;4430373;32;35599;-75
2022/09/29 07:54:35;;;;;;;;;;;;;;;12.28;100.00;98427.84;4429224;32;34747;-74
2022/09/29 07:57:22;;;;;;;;;;;;;;;12.10;100.00;98428.19;4421535;32;35257;-75
2022/09/29 08:00:08;;;;;;;;;;;;;;;12.25;100.00;98428.56;4429845;32;34338;-76
2022/09/29 08:03:01;;;;;;;;;;;;;;;12.01;100.00;98434.94;4411544;32;34245;-76
2022/09/29 08:05:48;;;;;;;;;;;;;;;11.83;100.00;98424.25;4425013;32;34713;-74
2022/09/29 08:08:35;;;;;;;;;;;;;;;12.45;100.00;98424.78;4432965;32;34729;-75
2022/09/29 08:11:24;;;;;;;;;;;;;;;12.27;100.00;98426.28;4424930;32;33417;-76
2022/09/29 08:14:16;;;;;;;;;;;;;;;12.08;100.00;98441.44;4433880;32;33751;-74
2022/09/29 08:17:03;;;;;;;;;;;;;;;12.59;100.00;98421.59;4423054;32;35094;-75
2022/09/29 08:19:49;;;;;;;;;;;;;;;12.79;100.00;98428.00;4431952;32;33554;-75
2022/09/29 08:22:35;;;;;;;;;;;;;;;13.07;100.00;98443.59;4432918;32;33645;-75
2022/09/29 08:25:21;;;;;;;;;;;;;;;12.46;100.00;98434.59;4433473;32;34819;-74
2022/09/29 08:28:10;;;;;;;;;;;;;;;12.80;100.00;98438.63;4423436;32;36066;-74
2022/09/29 08:31:08;;;;;;;;;;;;;;;12.92;100.00;98440.50;4432772;32;33666;-75
2022/09/29 08:33:55;;;;;;;;;;;;;;;12.87;100.00;98440.75;4422671;32;34005;-74
2022/09/29 08:36:41;;;;;;;;;;;;;;;13.32;100.00;98447.75;4421895;32;34345;-75
2022/09/29 08:39:27;;;;;;;;;;;;;;;13.46;100.00;98447.25;4424838;32;33987;-75
2022/09/29 08:42:16;;;;;;;;;;;;;;;13.12;100.00;98440.53;4426034;32;35316;-74
2022/09/29 08:45:04;;;;;;;;;;;;;;;13.04;100.00;98443.12;4422538;32;35401;-74
2022/09/29 08:48:05;;;;;;;;;;;;;;;13.07;100.00;98435.34;4424681;32;33772;-75
2022/09/29 08:51:05;;;;;;;;;;;;;;;13.26;100.00;98438.97;4424651;32;34933;-74
2022/09/29 08:53:50;;;;;;;;;;;;;;;13.28;100.00;98435.84;4424098;32;34889;-74
2022/09/29 08:56:48;;;;;;;;;;;;;;;13.66;100.00;98445.31;4413740;32;34830;-75
2022/09/29 08:59:33;;;;;;;;;;;;;;;13.89;100.00;98456.47;4422224;32;34347;-74
2022/09/29 09:02:20;;;;;;;;;;;;;;;14.17;100.00;98459.78;4424088;32;34895;-74
2022/09/29 09:05:06;;;;;;;;;;;;;;;14.02;100.00;98457.88;4434894;32;34876;-74
2022/09/29 09:07:58;;;;;;;;;;;;;;;14.44;100.00;98454.37;4435364;32;33729;-75
2022/09/29 09:10:50;;;;;;;;;;;;;;;13.98;100.00;98462.53;4436064;32;34717;-75
2022/09/29 09:13:45;;;;;;;;;;;;;;;14.54;100.00;98464.84;4426745;32;35292;-75
2022/09/29 09:16:35;;;;;;;;;;;;;;;13.81;100.00;98463.75;4435763;32;35688;-76
2022/09/29 09:19:21;;;;;;;;;;;;;;;14.20;100.00;98465.72;4437252;32;34674;-76
2022/09/29 09:22:13;;;;;;;;;;;;;;;14.49;100.00;98472.59;4426965;32;33227;-75
2022/09/29 09:25:04;;;;;;;;;;;;;;;14.67;100.00;98482.00;4424779;32;34643;-76
2022/09/29 09:27:57;;;;;;;;;;;;;;;14.12;100.00;98487.62;4438098;32;35180;-75
2022/09/29 09:30:46;;;;;;;;;;;;;;;13.95;100.00;98482.53;4427613;32;34135;-75
2022/09/29 09:33:34;;;;;;;;;;;;;;;15.01;100.00;98480.22;4425096;32;34447;-75
2022/09/29 09:36:28;;;;;;;;;;;;;;;15.27;100.00;98482.22;4437728;32;35350;-75
2022/09/29 09:39:21;;;;;;;;;;;;;;;15.20;100.00;98489.59;4423971;32;34686;-75
2022/09/29 09:42:11;;;;;;;;;;;;;;;14.85;100.00;98480.34;4426793;32;33879;-75
2022/09/29 09:44:58;;;;;;;;;;;;;;;15.26;100.00;98483.41;4423533;32;35450;-75
2022/09/29 09:47:48;;;;;;;;;;;;;;;15.22;100.00;98496.31;4423739;32;36212;-76
2022/09/29 09:50:38;;;;;;;;;;;;;;;16.02;100.00;98488.03;4418860;32;36133;-75
2022/09/29 09:53:30;;;;;;;;;;;;;;;15.60;100.00;98491.78;4423766;32;34028;-76
2022/09/29 09:56:25;;;;;;;;;;;;;;;15.18;100.00;98495.47;4428451;32;35416;-77
2022/09/29 09:59:15;;;;;;;;;;;;;;;15.46;100.00;98483.31;4425151;32;34733;-76
2022/09/29 10:02:01;;;;;;;2.47;1.33;;;;;;;16.00;100.00;98482.09;4432666;32;35577;-76
2022/09/29 10:04:50;;;;;;;2.67;0.70;;;;;;;16.14;100.00;98476.75;4428398;32;34016;-76
2022/09/29 10:07:37;;;;;;;1.37;0.80;;;;;;;16.70;100.00;98482.50;4427012;32;33276;-76
2022/09/29 10:10:25;;;;;;;;;;;;;;;17.75;94.90;98482.94;4436436;32;36245;-76
2022/09/29 10:13:12;;;;;;;;;;;;;;;17.36;98.95;98483.50;4427683;32;34852;-76
2022/09/29 10:16:12;;;;;;;1.95;1.42;;;;;;;17.39;97.72;98490.22;4435530;32;33851;-76
2022/09/29 10:18:58;;;;;;;0.95;0.50;;;;;;;18.67;89.07;98479.00;4434315;32;35461;-75
2022/09/29 10:21:45;;;;;;;1.55;0.52;;;;;;;17.54;94.65;98473.34;4435175;32;33431;-75
2022/09/29 10:24:30;;;;;;;1.60;0.80;;;;;;;18.34;87.20;98475.34;4436823;32;33795;-76
2022/09/29 10:27:20;;;;;;;2.33;0.60;;;;;;;18.02;89.63;98478.00;4433949;32;31982;-76
2022/09/29 10:30:16;;;;;;;1.00;0.50;;;;;;;17.90;86.87;98487.44;4426033;32;33910;-75
2022/09/29 10:33:04;;;;;;;0.80;0.50;;;;;;;18.95;78.72;98483.00;4424472;32;33625;-76
2022/09/29 10:36:07;;;;;;;0.40;0.30;;;;;;;19.01;79.34;98484.19;4426218;32;33883;-76
2022/09/29 10:38:55;;;;;;;0.22;0.20;;;;;;;19.17;78.81;98486.59;4427238;32;35277;-76
2022/09/29 10:41:52;;;;;;;0.50;0.35;;;;;;;19.51;81.97;98481.44;4426195;32;34190;-75
2022/09/29 10:44:39;;;;;;;0.50;0.37;;;;;;;20.36;76.03;98485.19;4426681;32;34390;-74
2022/09/29 10:47:26;;;;;;;;;;;;;;;19.04;78.70;98481.44;4435367;32;33524;-75
2022/09/29 10:50:12;;;;;;;;;;;;;;;17.94;83.80;98481.91;4433166;32;34473;-76
2022/09/29 10:53:00;;;;;;;;;;;;;;;19.33;81.53;98487.78;4435049;32;35899;-77
2022/09/29 10:55:46;;;;;;;;;;;;;;;18.18;80.89;98486.75;4423938;32;35243;-76
2022/09/29 10:58:33;;;;;;;;;;;;;;;18.68;79.90;98490.88;4435655;32;34364;-75
2022/09/29 11:01:44;;;;;;;;;;;;;;;18.58;81.64;98495.22;4434542;32;35381;-75
2022/09/29 11:04:31;;;;;;;;;;;;;;;18.76;77.79;98498.06;4435475;32;34684;-77
2022/09/29 11:07:17;;;;;;;;;;;;;;;18.65;82.45;98487.69;4426567;32;34660;-76
2022/09/29 11:10:03;;;;;;;;;;;;;;;18.07;83.93;98494.25;4435805;32;35686;-76
2022/09/29 11:12:49;;;;;;;;;;;;;;;17.02;91.36;98499.44;4435593;32;34384;-76
2022/09/29 11:15:39;;;;;;;;;;;;;;;17.01;91.75;98504.16;4434057;32;35439;-75
2022/09/29 11:18:31;;;;;;;;;;;;;;;16.86;90.75;98507.97;4413504;32;35112;-75
2022/09/29 11:21:20;;;;;;;;;;;;;;;17.13;88.98;98507.81;4422328;32;34362;-76
2022/09/29 11:24:13;;;;;;;;;;;;;;;17.32;85.83;98510.34;4435901;32;33760;-75
2022/09/29 11:27:17;;;;;;;;;;;;;;;16.97;88.32;98514.41;4435414;32;34573;-76
2022/09/29 11:30:06;;;;;;;;;;;;;;;16.60;92.80;98506.91;4436344;32;36232;-75
2022/09/29 11:33:00;;;;;;;;;;;;;;;16.43;93.55;98513.03;4426460;32;34432;-75
2022/09/29 11:36:05;;;;;;;;;;;;;;;16.29;92.71;98510.88;4436688;32;33649;-76
2022/09/29 11:38:57;;;;;;;;;;;;;;;16.75;91.18;98501.50;4438076;32;34922;-75
2022/09/29 11:41:49;;;;;;;;;;;;;;;15.93;95.97;98498.56;4434953;32;35284;-75
2022/09/29 11:44:57;;;;;;;;;;;;;;;16.01;97.28;98505.78;4428153;32;34481;-75
2022/09/29 11:47:50;;;;;;;;;;;;;;;16.34;97.21;98515.28;4428465;32;34980;-76
2022/09/29 11:50:48;;;;;;;;;;;;;;;15.98;98.53;98517.59;4424958;32;34928;-76
2022/09/29 11:53:41;;;;;;;;;;;;;;;15.52;100.00;98514.94;4414260;32;35187;-75
2022/09/29 11:56:46;;;;;;;;;;;;;;;16.22;100.00;98521.03;4438099;32;34445;-75
2022/09/29 11:59:40;;;;;;;;;;;;;;;16.39;98.30;98518.53;4437475;32;34306;-75
2022/09/29 12:02:32;;;;;;;;;;;;;;;16.55;96.10;98523.81;4424645;32;33698;-75
2022/09/29 12:05:22;;;;;;;;;;;;;;;16.85;95.95;98528.53;4436387;32;35289;-75
2022/09/29 12:08:08;;;;;;;;;;;;;;;16.97;96.94;98538.53;4424896;32;35109;-76
2022/09/29 12:10:57;;;;;;;;;;;;;;;17.51;91.51;98526.72;4437438;32;34906;-75
2022/09/29 12:13:54;;;;;;;;;;;;;;;16.67;95.41;98524.72;4436626;32;34844;-75
2022/09/29 12:16:43;;;;;;;;;;;;;;;16.71;95.52;98517.28;4424890;32;34960;-75
2022/09/29 12:19:38;;;;;;;;;;;;;;;17.21;94.98;98518.56;4425121;32;34844;-75
2022/09/29 12:22:28;;;;;;;;;;;;;;;17.13;97.72;98518.88;4424638;32;34434;-75
2022/09/29 12:25:23;;;;;;;;;;;;;;;16.23;100.00;98514.37;4418677;32;34919;-75
2022/09/29 12:28:14;;;;;;;;;;;;;;;15.84;100.00;98509.13;4425359;32;34922;-73
2022/09/29 12:31:05;;;;;;;;;;;;;;;16.59;100.00;98516.38;4424746;32;34871;-75
2022/09/29 12:33:52;;;;;;;;;;;;;;;16.50;100.00;98513.09;4414088;32;34905;-75
2022/09/29 12:37:01;;;;;;;;;;;;;;;16.14;100.00;98511.88;4435779;32;33841;-75
2022/09/29 12:40:08;;;;;;;;;;;;;;;16.25;100.00;98523.88;4431157;32;34427;-75
2022/09/29 12:43:00;;;;;;;;;;;;;;;17.35;100.00;98539.25;4433684;32;35068;-74
2022/09/29 12:45:55;;;;;;;;;;;;;;;17.22;100.00;98552.59;4433276;32;33761;-75
2022/09/29 12:48:47;;;;;;;;;;;;;;;16.58;97.45;98563.75;4433174;32;34892;-75
2022/09/29 12:51:33;;;;;;;;;;;;;;;15.93;100.00;98562.09;4432446;32;34614;-75
2022/09/29 12:54:21;;;;;;;;;;;;;;;16.03;100.00;98555.16;4432453;32;34583;-75
2022/09/29 12:57:07;;;;;;;;;;;;;;;16.95;99.26;98565.75;4425359;32;33747;-75
2022/09/29 13:00:09;;;;;;;;;;;;;;;16.87;95.53;98564.88;4433095;32;34865;-75
2022/09/29 13:03:04;;;;;;;;;;;;;;;16.74;99.01;98558.81;4424125;32;35885;-75
2022/09/29 13:05:56;;;;;;;;;;;;;;;16.13;100.00;98549.75;4433158;32;35867;-76
2022/09/29 13:08:45;;;;;;;;;;;;;;;16.30;100.00;98553.13;4432811;32;32880;-76
2022/09/29 13:11:36;;;;;;;;;;;;;;;17.52;99.02;98555.22;4432562;32;34237;-75
2022/09/29 13:14:24;;;;;;;;;;;;;;;17.78;93.46;98537.63;4434623;32;35964;-75
2022/09/29 13:17:13;;;;;;;;;;;;;;;18.00;93.97;98537.75;4400368;32;35142;-75
2022/09/29 13:20:15;;;;;;;;;;;;;;;17.03;94.89;98545.28;4432951;32;34171;-74
2022/09/29 13:23:04;;;;;;;;;;;;;;;18.01;92.13;98542.91;4445672;32;34866;-76
2022/09/29 13:26:04;;;;;;;;;;;;;;;18.56;87.32;98539.22;4433668;32;34907;-76
2022/09/29 13:28:50;;;;;;;;;;;;;;;18.47;87.07;98547.91;4434802;32;35576;-76
2022/09/29 13:31:37;;;;;;;;;;;;;;;18.47;81.87;98547.91;4449115;32;33653;-76
2022/09/29 13:34:28;;;;;;;;;;;;;;;18.93;78.95;98546.47;4438012;32;34868;-76
2022/09/29 13:37:18;;;;;;;;;;;;;;;19.74;78.41;98545.72;4438157;32;35222;-75
2022/09/29 13:40:05;;;;;;;;;;;;;;;17.47;85.56;98558.31;4427431;32;35464;-75
2022/09/29 13:43:02;;;;;;;;;;;;;;;18.07;83.86;98558.00;4438733;32;34157;-75
2022/09/29 13:45:47;;;;;;;;;;;;;;;17.01;93.98;98567.81;4449444;32;34445;-75
2022/09/29 13:48:34;;;;;;;;;;;;;;;17.62;90.26;98559.25;4438080;32;36142;-75
2022/09/29 13:51:21;;;;;;;;;;;;;;;17.95;89.05;98563.84;4438198;32;34586;-75
2022/09/29 13:54:17;;;;;;;;;;;;;;;18.33;87.22;98561.69;4438147;32;34139;-75
2022/09/29 13:57:12;;;;;;;;;;;;;;;18.22;84.96;98561.63;4437790;32;34898;-75
2022/09/29 14:00:01;;;;;;;;;;;;;;;17.09;93.43;98566.69;4450076;32;36153;-75
2022/09/29 14:03:04;;;;;;;;;;;;;;;16.39;97.33;98562.75;4449634;32;35198;-75
2022/09/29 14:06:09;;;;;;;;;;;;;;;15.86;100.00;98564.78;4437886;32;35044;-75
2022/09/29 14:09:16;;;;;;;;;;;;;;;17.02;94.00;98555.56;4448968;32;34928;-75
2022/09/29 14:12:07;;;;;;;;;;;;;;;16.24;96.40;98557.41;4438121;32;35278;-76
2022/09/29 14:14:54;;;;;;;;;;;;;;;16.71;98.29;98567.06;4426975;32;34826;-75
2022/09/29 14:17:46;;;;;;;;;;;;;;;16.81;98.25;98569.16;4438029;32;34020;-75
2022/09/29 14:20:32;;;;;;;;;;;;;;;16.98;93.75;98571.31;4437638;32;35469;-75
2022/09/29 14:23:34;;;;;;;;;;;;;;;17.87;89.63;98563.03;4437724;32;35248;-75
2022/09/29 14:26:38;;;;;;;;;;;;;;;17.37;90.81;98565.38;4437675;32;34556;-75
2022/09/29 14:29:31;;;;;;;;;;;;;;;16.43;96.55;98573.84;4449805;32;34128;-75
2022/09/29 14:32:18;;;;;;;;;;;;;;;16.19;100.00;98575.91;4437794;32;34436;-75